createdAt,value
2019-05-26T00:02:11.711Z,7.30
2019-05-26T00:04:42.810Z,12.03
2019-05-26T00:07:27.939Z,7.63
2019-05-26T00:09:46.694Z,8.13
2019-05-26T00:12:17.476Z,6.77
2019-05-26T00:14:48.140Z,6.20
2019-05-26T00:17:18.768Z,10.97
2019-05-26T00:19:50.372Z,8.47
2019-05-26T00:22:23.633Z,9.80
2019-05-26T00:24:54.590Z,9.60
2019-05-26T00:27:25.264Z,10.30
2019-05-26T00:29:56.096Z,7.33
2019-05-26T00:32:26.909Z,10.80
2019-05-26T00:34:57.725Z,10.23
2019-05-26T00:37:28.836Z,13.47
2019-05-26T00:39:59.741Z,10.00
2019-05-26T00:42:30.435Z,11.87
2019-05-26T00:45:01.226Z,15.23
2019-05-26T00:47:32.105Z,10.70
2019-05-26T00:50:03.721Z,8.33
2019-05-26T00:52:34.794Z,12.20
2019-05-26T00:55:09.923Z,7.43
2019-05-26T00:57:40.804Z,10.00
2019-05-26T01:00:12.073Z,5.83
2019-05-26T01:02:42.894Z,10.23
2019-05-26T01:05:13.708Z,5.13
2019-05-26T01:07:44.537Z,5.00
2019-05-26T01:10:15.553Z,5.37
2019-05-26T01:12:46.091Z,9.47
2019-05-26T01:15:16.937Z,8.43
2019-05-26T01:17:47.713Z,8.83
2019-05-26T01:20:18.716Z,10.77
2019-05-26T01:22:49.749Z,11.97
2019-05-26T01:25:20.787Z,14.27
2019-05-26T01:27:51.540Z,9.30
2019-05-26T01:30:27.073Z,13.60
2019-05-26T01:32:57.745Z,9.63
2019-05-26T01:35:28.480Z,15.23
2019-05-26T01:37:59.554Z,9.73
2019-05-26T01:40:43.355Z,14.70
2019-05-26T01:43:13.794Z,10.27
2019-05-26T01:45:44.652Z,12.30
2019-05-26T01:48:15.437Z,10.07
2019-05-26T01:50:46.161Z,12.90
2019-05-26T01:53:17.005Z,8.53
2019-05-26T01:55:47.631Z,10.53
2019-05-26T01:58:18.096Z,15.17
2019-05-26T02:00:49.247Z,10.17
2019-05-26T02:03:19.932Z,11.73
2019-05-26T02:05:50.556Z,11.87
2019-05-26T02:08:21.457Z,12.67
2019-05-26T02:10:52.756Z,10.27
2019-05-26T02:13:23.493Z,8.37
2019-05-26T02:15:54.482Z,9.60
2019-05-26T02:18:25.169Z,12.23
2019-05-26T02:20:56.158Z,15.40
2019-05-26T02:23:26.836Z,10.80
2019-05-26T02:25:57.949Z,8.80
2019-05-26T02:28:28.902Z,10.47
2019-05-26T02:30:59.490Z,9.77
2019-05-26T02:33:30.149Z,10.60
2019-05-26T02:36:00.930Z,7.53
2019-05-26T02:38:31.881Z,9.60
2019-05-26T02:41:02.886Z,9.33
2019-05-26T02:43:33.526Z,9.00
2019-05-26T02:46:04.847Z,9.23
2019-05-26T02:48:35.406Z,12.70
2019-05-26T02:51:06.200Z,12.03
2019-05-26T02:53:36.839Z,11.75
2019-05-26T02:56:07.961Z,10.97
2019-05-26T02:58:39.006Z,8.93
2019-05-26T03:01:10.552Z,10.87
2019-05-26T03:03:41.049Z,12.33
2019-05-26T03:06:19.920Z,11.43
2019-05-26T03:08:53.354Z,10.67
2019-05-26T03:11:26.387Z,13.10
2019-05-26T03:14:00.317Z,13.50
2019-05-26T03:16:34.178Z,6.63
2019-05-26T03:19:05.417Z,13.50
2019-05-26T03:21:36.363Z,8.43
2019-05-26T03:24:07.132Z,11.80
2019-05-26T03:26:37.831Z,11.53
2019-05-26T03:29:08.277Z,12.10
2019-05-26T03:31:39.039Z,11.67
2019-05-26T03:34:09.597Z,11.00
2019-05-26T03:36:40.432Z,9.60
2019-05-26T03:39:11.748Z,10.60
2019-05-26T03:41:42.772Z,9.00
2019-05-26T03:44:16.302Z,9.97
2019-05-26T03:46:47.372Z,10.67
2019-05-26T03:49:17.984Z,10.53
2019-05-26T03:51:48.972Z,9.00
2019-05-26T03:54:22.220Z,12.87
2019-05-26T03:56:53.043Z,10.90
2019-05-26T03:59:23.649Z,9.80
2019-05-26T04:01:57.607Z,10.87
2019-05-26T04:04:26.761Z,14.73
2019-05-26T04:06:57.710Z,11.37
2019-05-26T04:09:28.351Z,10.87
2019-05-26T04:11:59.196Z,8.93
2019-05-26T04:14:29.951Z,10.00
2019-05-26T04:17:01.053Z,9.63
2019-05-26T04:19:31.954Z,9.50
2019-05-26T04:22:02.575Z,12.47
2019-05-26T04:24:33.372Z,8.27
2019-05-26T04:27:04.497Z,9.10
2019-05-26T04:29:35.186Z,5.60
2019-05-26T04:32:06.201Z,5.20
2019-05-26T04:34:36.962Z,7.47
2019-05-26T04:37:07.594Z,5.60
2019-05-26T04:39:38.297Z,6.83
2019-05-26T04:42:09.231Z,10.77
2019-05-26T04:44:39.958Z,12.43
2019-05-26T04:47:11.053Z,10.13
2019-05-26T04:49:41.552Z,7.77
2019-05-26T04:52:12.222Z,8.43
2019-05-26T04:54:42.921Z,9.33
2019-05-26T04:57:13.546Z,9.20
2019-05-26T04:59:44.020Z,7.90
2019-05-26T05:02:15.116Z,9.47
2019-05-26T05:04:51.265Z,6.77
2019-05-26T05:07:22.078Z,5.80
2019-05-26T05:09:52.661Z,9.30
2019-05-26T05:12:23.497Z,7.83
2019-05-26T05:14:53.937Z,6.00
2019-05-26T05:17:24.797Z,5.93
2019-05-26T05:19:58.782Z,6.37
2019-05-26T05:22:29.430Z,7.27
2019-05-26T05:25:00.223Z,8.83
2019-05-26T05:27:31.124Z,2.97
2019-05-26T05:30:01.865Z,5.00
2019-05-26T05:32:33.150Z,4.10
2019-05-26T05:35:04.062Z,6.73
2019-05-26T05:37:35.179Z,8.23
2019-05-26T05:40:06.951Z,4.77
2019-05-26T05:42:37.503Z,9.83
2019-05-26T05:45:09.292Z,6.30
2019-05-26T05:47:40.022Z,3.53
2019-05-26T05:56:45.266Z,4.13
2019-05-26T05:59:15.392Z,6.43
2019-05-26T06:01:45.890Z,7.20
2019-05-26T06:04:16.672Z,5.63
2019-05-26T06:06:49.531Z,7.37
2019-05-26T06:09:20.994Z,7.70
2019-05-26T06:11:56.872Z,9.00
2019-05-26T06:14:29.232Z,8.00
2019-05-26T06:17:04.370Z,5.07
2019-05-26T06:19:35.583Z,6.03
2019-05-26T06:22:13.510Z,9.07
2019-05-26T06:24:55.438Z,8.77
2019-05-26T06:27:30.106Z,8.60
2019-05-26T06:30:02.422Z,5.67
2019-05-26T06:32:33.202Z,6.73
2019-05-26T06:35:04.566Z,4.70
2019-05-26T06:37:41.744Z,5.57
2019-05-26T06:40:14.162Z,3.83
2019-05-26T06:42:44.986Z,4.90
2019-05-26T06:45:18.287Z,8.77
2019-05-26T06:47:49.337Z,8.03
2019-05-26T06:50:20.259Z,6.23
2019-05-26T06:52:52.391Z,5.50
2019-05-26T06:55:23.533Z,6.63
2019-05-26T06:57:54.066Z,5.57
2019-05-26T07:00:25.670Z,3.80
2019-05-26T07:02:55.997Z,6.53
2019-05-26T07:05:26.832Z,5.40
2019-05-26T07:07:57.494Z,3.27
2019-05-26T07:10:28.184Z,6.27
2019-05-26T07:12:59.912Z,5.87
2019-05-26T07:15:30.514Z,5.77
2019-05-26T07:18:01.219Z,4.97
2019-05-26T07:20:31.741Z,7.37
2019-05-26T07:23:02.565Z,7.83
2019-05-26T07:25:33.313Z,6.43
2019-05-26T07:28:03.740Z,6.67
2019-05-26T07:30:34.332Z,2.83
2019-05-26T07:33:05.081Z,3.87
2019-05-26T07:35:35.608Z,6.10
2019-05-26T07:38:06.011Z,3.77
2019-05-26T07:40:37.755Z,4.33
2019-05-26T07:43:08.254Z,7.00
2019-05-26T07:45:38.884Z,5.43
2019-05-26T07:48:10.268Z,7.83
2019-05-26T07:50:41.187Z,3.87
2019-05-26T07:53:11.396Z,3.33
2019-05-26T07:55:42.206Z,4.57
2019-05-26T07:58:12.755Z,5.33
2019-05-26T08:00:43.239Z,4.20
2019-05-26T08:03:13.720Z,4.67
2019-05-26T08:05:44.358Z,6.37
2019-05-26T08:08:14.812Z,5.30
2019-05-26T08:10:45.537Z,6.37
2019-05-26T08:13:15.968Z,5.70
2019-05-26T08:15:46.816Z,2.77
2019-05-26T08:18:17.276Z,5.13
2019-05-26T08:20:47.596Z,4.93
2019-05-26T08:23:18.326Z,5.27
2019-05-26T08:25:49.240Z,5.80
2019-05-26T08:28:19.915Z,7.00
2019-05-26T08:30:50.748Z,4.97
2019-05-26T08:33:21.351Z,5.03
2019-05-26T08:35:51.816Z,5.17
2019-05-26T08:38:22.424Z,9.53
2019-05-26T08:40:53.041Z,4.43
2019-05-26T08:43:23.534Z,4.50
2019-05-26T08:45:57.252Z,2.30
2019-05-26T08:48:28.292Z,2.23
2019-05-26T08:50:58.822Z,4.30
2019-05-26T08:53:33.540Z,1.70
2019-05-26T08:56:04.041Z,4.47
2019-05-26T08:58:34.744Z,5.30
2019-05-26T09:01:05.119Z,5.30
2019-05-26T09:03:35.402Z,2.80
2019-05-26T09:06:06.153Z,1.73
2019-05-26T09:08:36.810Z,5.10
2019-05-26T09:11:07.643Z,3.30
2019-05-26T09:13:38.137Z,1.43
2019-05-26T09:16:08.748Z,2.27
2019-05-26T09:18:39.265Z,3.93
2019-05-26T09:21:09.576Z,2.90
2019-05-26T09:23:40.025Z,2.97
2019-05-26T09:26:10.650Z,3.93
2019-05-26T09:28:41.349Z,4.83
2019-05-26T09:31:11.903Z,5.13
2019-05-26T09:33:42.552Z,2.10
2019-05-26T09:36:13.024Z,2.27
2019-05-26T09:38:43.710Z,5.07
2019-05-26T09:41:14.317Z,5.30
2019-05-26T09:43:45.088Z,2.17
2019-05-26T09:46:15.515Z,3.60
2019-05-26T09:48:46.221Z,5.00
2019-05-26T09:51:16.894Z,3.17
2019-05-26T09:54:00.757Z,6.90
2019-05-26T09:56:19.502Z,2.20
2019-05-26T09:58:51.754Z,2.67
2019-05-26T10:01:22.191Z,2.63
2019-05-26T10:03:53.788Z,3.30
2019-05-26T10:06:25.722Z,2.20
2019-05-26T10:08:56.224Z,2.53
2019-05-26T10:11:26.853Z,3.33
2019-05-26T10:13:58.359Z,5.17
2019-05-26T10:16:28.830Z,4.30
2019-05-26T10:18:59.328Z,2.90
2019-05-26T10:21:29.976Z,4.83
2019-05-26T10:24:00.609Z,3.70
2019-05-26T10:26:31.256Z,2.37
2019-05-26T10:29:02.383Z,6.03
2019-05-26T10:31:36.109Z,2.70
2019-05-26T10:34:06.818Z,4.50
2019-05-26T10:36:39.286Z,2.23
2019-05-26T10:39:10.146Z,3.40
2019-05-26T10:41:41.008Z,3.40
2019-05-26T10:44:11.920Z,4.03
2019-05-26T10:46:42.469Z,8.27
2019-05-26T10:49:13.363Z,2.97
2019-05-26T10:51:43.850Z,2.93
2019-05-26T10:54:14.559Z,2.33
2019-05-26T10:56:45.130Z,2.63
2019-05-26T10:59:15.811Z,2.87
2019-05-26T11:01:46.151Z,2.60
2019-05-26T11:04:16.544Z,3.67
2019-05-26T11:06:47.379Z,2.63
2019-05-26T11:09:17.887Z,3.65
2019-05-26T11:11:48.681Z,3.47
2019-05-26T11:14:19.165Z,4.30
2019-05-26T11:16:49.906Z,3.20
2019-05-26T11:19:20.384Z,5.70
2019-05-26T11:21:51.184Z,3.57
2019-05-26T11:24:21.543Z,2.57
2019-05-26T11:26:52.502Z,3.50
2019-05-26T11:29:23.165Z,4.10
2019-05-26T11:31:53.681Z,7.13
2019-05-26T11:34:24.364Z,6.23
2019-05-26T11:36:54.927Z,2.77
2019-05-26T11:39:25.512Z,6.40
2019-05-26T11:41:56.232Z,4.40
2019-05-26T11:44:26.625Z,4.97
2019-05-26T11:46:57.284Z,5.13
2019-05-26T11:49:27.763Z,3.40
2019-05-26T11:51:59.814Z,3.40
2019-05-26T11:54:33.776Z,2.80
2019-05-26T11:57:02.964Z,3.73
2019-05-26T11:59:33.394Z,1.27
2019-05-26T12:02:04.073Z,1.27
2019-05-26T12:04:34.693Z,2.00
2019-05-26T12:07:05.548Z,3.77
2019-05-26T12:09:36.002Z,3.80
2019-05-26T12:12:06.624Z,1.93
2019-05-26T12:14:36.957Z,3.97
2019-05-26T12:17:07.992Z,1.80
2019-05-26T12:19:39.011Z,1.83
2019-05-26T12:22:09.658Z,2.00
2019-05-26T12:24:40.750Z,2.00
2019-05-26T12:27:11.857Z,1.03
2019-05-26T12:29:44.668Z,2.20
2019-05-26T12:32:15.344Z,2.57
2019-05-26T12:34:45.665Z,2.93
2019-05-26T12:37:16.445Z,1.07
2019-05-26T12:39:47.156Z,1.80
2019-05-26T12:42:17.784Z,1.27
2019-05-26T12:44:49.803Z,2.87
2019-05-26T12:47:20.567Z,3.13
2019-05-26T12:49:51.095Z,0.73
2019-05-26T12:52:21.689Z,0.80
2019-05-26T12:54:52.203Z,2.77
2019-05-26T12:57:23.173Z,1.60
2019-05-26T12:59:54.334Z,3.05
2019-05-26T13:02:25.020Z,3.60
2019-05-26T13:04:55.491Z,1.80
2019-05-26T13:07:26.346Z,2.20
2019-05-26T13:09:56.758Z,2.60
2019-05-26T13:12:27.373Z,2.50
2019-05-26T13:15:06.031Z,3.67
2019-05-26T13:17:35.132Z,1.97
2019-05-26T13:20:06.692Z,1.80
2019-05-26T13:22:37.913Z,2.87
2019-05-26T13:25:10.171Z,3.97
2019-05-26T13:27:41.447Z,2.47
2019-05-26T13:30:13.276Z,1.37
2019-05-26T13:32:44.388Z,2.07
2019-05-26T13:35:15.521Z,4.50
2019-05-26T13:37:46.436Z,2.83
2019-05-26T13:40:17.070Z,2.23
2019-05-26T13:42:47.917Z,4.07
2019-05-26T13:45:22.913Z,3.77
2019-05-26T13:47:51.484Z,2.47
2019-05-26T13:50:23.211Z,2.17
2019-05-26T13:52:53.969Z,5.57
2019-05-26T13:55:25.252Z,4.03
2019-05-26T13:57:56.244Z,4.10
2019-05-26T14:00:27.412Z,2.43
2019-05-26T14:02:58.027Z,1.63
2019-05-26T14:05:28.570Z,3.07
2019-05-26T14:07:59.237Z,2.93
2019-05-26T14:10:34.376Z,2.97
2019-05-26T14:13:06.135Z,1.67
2019-05-26T14:15:38.977Z,4.63
2019-05-26T14:18:12.674Z,3.30
2019-05-26T14:20:44.799Z,3.37
2019-05-26T14:23:15.416Z,2.00
2019-05-26T14:25:46.290Z,1.77
2019-05-26T14:28:17.318Z,1.93
2019-05-26T14:30:49.016Z,2.57
2019-05-26T14:33:20.126Z,2.87
2019-05-26T14:35:51.046Z,3.27
2019-05-26T14:38:21.998Z,3.37
2019-05-26T14:40:52.484Z,2.70
2019-05-26T14:43:23.467Z,3.00
2019-05-26T14:45:54.108Z,3.60
2019-05-26T14:48:25.120Z,2.90
2019-05-26T14:50:55.575Z,1.50
2019-05-26T14:53:26.352Z,2.20
2019-05-26T14:55:57.047Z,3.07
2019-05-26T14:58:27.786Z,4.17
2019-05-26T15:00:58.132Z,2.97
2019-05-26T15:03:28.574Z,3.50
2019-05-26T15:06:06.456Z,2.47
2019-05-26T15:08:37.079Z,5.57
2019-05-26T15:11:07.782Z,3.03
2019-05-26T15:13:38.569Z,1.90
2019-05-26T15:16:10.601Z,4.17
2019-05-26T15:18:41.344Z,3.57
2019-05-26T15:21:12.055Z,2.37
2019-05-26T15:23:42.616Z,3.80
2019-05-26T15:26:13.317Z,5.50
2019-05-26T15:28:46.166Z,3.83
2019-05-26T15:31:16.944Z,2.83
2019-05-26T15:33:52.242Z,4.23
2019-05-26T15:36:19.675Z,4.70
2019-05-26T15:38:52.142Z,2.23
2019-05-26T15:41:22.969Z,3.73
2019-05-26T15:43:53.780Z,2.70
2019-05-26T15:46:25.731Z,3.57
2019-05-26T15:48:57.376Z,2.60
2019-05-26T15:51:28.520Z,5.60
2019-05-26T15:53:59.110Z,2.73
2019-05-26T15:56:29.785Z,4.33
2019-05-26T15:59:00.525Z,7.23
2019-05-26T16:01:31.563Z,3.80
2019-05-26T16:04:01.888Z,4.07
2019-05-26T16:06:32.414Z,4.83
2019-05-26T16:09:03.860Z,4.33
2019-05-26T16:11:34.615Z,7.37
2019-05-26T16:14:05.160Z,6.60
2019-05-26T16:16:41.127Z,6.10
2019-05-26T16:19:08.018Z,6.33
2019-05-26T16:21:38.592Z,4.80
2019-05-26T16:24:10.620Z,4.83
2019-05-26T16:26:41.343Z,4.20
2019-05-26T16:29:12.080Z,6.20
2019-05-26T16:31:42.688Z,4.87
2019-05-26T16:34:13.001Z,5.30
2019-05-26T16:36:43.552Z,5.77
2019-05-26T16:39:14.030Z,5.97
2019-05-26T16:41:44.712Z,4.50
2019-05-26T16:44:15.550Z,4.27
2019-05-26T16:46:56.095Z,5.67
2019-05-26T16:49:19.221Z,5.47
2019-05-26T16:51:49.931Z,5.07
2019-05-26T16:54:20.522Z,5.80
2019-05-26T16:56:51.073Z,5.20
2019-05-26T16:59:23.480Z,4.47
2019-05-26T17:01:54.758Z,7.73
2019-05-26T17:04:25.489Z,6.90
2019-05-26T17:06:58.214Z,7.90
2019-05-26T17:09:28.930Z,5.87
2019-05-26T17:11:59.600Z,4.53
2019-05-26T17:14:30.013Z,4.20
2019-05-26T17:17:14.216Z,6.00
2019-05-26T17:19:33.202Z,5.43
2019-05-26T17:22:03.778Z,4.53
2019-05-26T17:24:34.448Z,6.53
2019-05-26T17:27:05.066Z,3.60
2019-05-26T17:29:35.786Z,4.57
2019-05-26T17:32:06.558Z,2.67
2019-05-26T17:34:38.109Z,5.33
2019-05-26T17:37:15.233Z,3.57
2019-05-26T17:39:45.788Z,5.87
2019-05-26T17:42:16.731Z,2.93
2019-05-26T17:44:47.475Z,4.70
2019-05-26T17:47:29.722Z,4.27
2019-05-26T17:49:52.863Z,4.23
2019-05-26T17:52:23.336Z,6.33
2019-05-26T17:54:53.889Z,3.83
2019-05-26T17:57:24.830Z,4.00
2019-05-26T17:59:58.851Z,3.53
2019-05-26T18:02:32.535Z,2.57
2019-05-26T18:05:03.661Z,3.87
2019-05-26T18:07:35.759Z,4.03
2019-05-26T18:10:08.182Z,5.40
2019-05-26T18:12:39.147Z,3.23
2019-05-26T18:15:10.693Z,3.37
2019-05-26T18:17:47.078Z,4.23
2019-05-26T18:20:16.063Z,2.80
2019-05-26T18:22:46.913Z,4.03
2019-05-26T18:25:18.425Z,3.87
2019-05-26T18:27:49.314Z,4.33
2019-05-26T18:30:20.149Z,6.10
2019-05-26T18:32:53.966Z,4.30
2019-05-26T18:35:24.580Z,4.87
2019-05-26T18:38:01.822Z,1.67
2019-05-26T18:40:32.703Z,3.90
2019-05-26T18:43:05.956Z,4.37
2019-05-26T18:45:36.611Z,3.63
2019-05-26T18:48:07.515Z,2.50
2019-05-26T18:50:38.588Z,4.73
2019-05-26T18:53:10.209Z,5.70
2019-05-26T18:55:40.879Z,4.57
2019-05-26T18:58:11.632Z,2.57
2019-05-26T19:00:42.232Z,4.47
2019-05-26T19:03:13.031Z,1.70
2019-05-26T19:05:43.682Z,2.77
2019-05-26T19:08:14.408Z,4.30
2019-05-26T19:10:44.949Z,4.00
2019-05-26T19:19:51.100Z,3.63
2019-05-26T19:22:21.497Z,3.23
2019-05-26T19:24:52.935Z,5.27
2019-05-26T19:27:23.717Z,3.93
2019-05-26T19:29:54.349Z,3.90
2019-05-26T19:32:24.840Z,3.90
2019-05-26T19:34:56.160Z,5.30
2019-05-26T19:37:26.843Z,3.37
2019-05-26T19:39:57.489Z,2.07
2019-05-26T19:42:28.062Z,4.70
2019-05-26T19:44:58.779Z,2.93
2019-05-26T19:47:29.368Z,3.50
2019-05-26T19:50:00.223Z,5.63
2019-05-26T19:52:31.322Z,2.90
2019-05-26T19:55:02.626Z,2.20
2019-05-26T19:57:33.307Z,4.50
2019-05-26T20:00:04.523Z,6.43
2019-05-26T20:02:36.640Z,1.60
2019-05-26T20:05:08.549Z,2.77
2019-05-26T20:07:39.109Z,3.03
2019-05-26T20:10:10.973Z,5.77
2019-05-26T20:12:46.493Z,2.97
2019-05-26T20:15:17.271Z,5.13
2019-05-26T20:17:47.688Z,4.63
2019-05-26T20:20:18.480Z,4.67
2019-05-26T20:22:49.000Z,2.83
2019-05-26T20:25:21.186Z,4.77
2019-05-26T20:27:51.802Z,2.07
2019-05-26T20:30:23.688Z,2.27
2019-05-26T20:32:54.318Z,2.47
2019-05-26T20:35:25.116Z,3.67
2019-05-26T20:37:55.633Z,5.43
2019-05-26T20:40:26.256Z,5.73
2019-05-26T20:42:57.672Z,3.97
2019-05-26T20:45:28.262Z,3.80
2019-05-26T20:47:58.849Z,5.27
2019-05-26T20:50:30.198Z,4.10
2019-05-26T20:53:00.652Z,3.03
2019-05-26T20:55:31.431Z,4.30
2019-05-26T20:58:02.041Z,5.57
2019-05-26T21:00:32.806Z,1.90
2019-05-26T21:03:03.295Z,4.00
2019-05-26T21:05:34.178Z,5.77
2019-05-26T21:08:04.637Z,4.07
2019-05-26T21:10:35.529Z,5.83
2019-05-26T21:13:06.619Z,2.90
2019-05-26T21:15:37.273Z,4.53
2019-05-26T21:18:08.032Z,4.53
2019-05-26T21:20:38.665Z,5.47
2019-05-26T21:23:09.502Z,2.50
2019-05-26T21:25:40.237Z,3.47
2019-05-26T21:28:10.661Z,6.60
2019-05-26T21:30:41.373Z,2.73
2019-05-26T21:33:11.791Z,2.77
2019-05-26T21:35:42.319Z,3.30
2019-05-26T21:38:12.784Z,3.50
2019-05-26T21:40:43.801Z,2.80
2019-05-26T21:43:14.420Z,2.83
2019-05-26T21:45:45.121Z,4.70
2019-05-26T21:48:15.635Z,2.87
2019-05-26T21:50:46.554Z,2.83
2019-05-26T21:53:17.152Z,3.87
2019-05-26T21:55:47.953Z,5.10
2019-05-26T21:58:18.438Z,4.07
2019-05-26T22:00:50.577Z,4.83
2019-05-26T22:03:21.240Z,2.80
2019-05-26T22:05:51.967Z,4.07
2019-05-26T22:08:22.484Z,3.30
2019-05-26T22:10:53.442Z,3.30
2019-05-26T22:13:24.007Z,4.43
2019-05-26T22:15:54.766Z,4.63
2019-05-26T22:18:25.332Z,5.37
2019-05-26T22:20:56.279Z,7.67
2019-05-26T22:23:26.846Z,4.30
2019-05-26T22:25:58.995Z,3.33
2019-05-26T22:28:29.646Z,2.37
2019-05-26T22:31:00.177Z,4.43
2019-05-26T22:33:30.627Z,5.27
2019-05-26T22:36:01.244Z,6.30
2019-05-26T22:38:31.653Z,6.47
2019-05-26T22:41:02.276Z,5.47
2019-05-26T22:43:33.668Z,2.90
2019-05-26T22:46:04.251Z,4.67
2019-05-26T22:48:34.665Z,3.70
2019-05-26T22:51:05.384Z,4.60
2019-05-26T22:53:35.908Z,4.30
2019-05-26T22:56:06.632Z,5.33
2019-05-26T22:58:37.176Z,3.37
2019-05-26T23:01:08.877Z,5.10
2019-05-26T23:03:39.777Z,4.37
2019-05-26T23:06:10.426Z,3.97
2019-05-26T23:08:41.310Z,3.13
2019-05-26T23:11:12.421Z,3.30
2019-05-26T23:13:42.920Z,4.93
2019-05-26T23:16:16.380Z,6.17
2019-05-26T23:18:46.814Z,3.37
2019-05-26T23:21:17.420Z,4.93
2019-05-26T23:23:47.856Z,5.83
2019-05-26T23:26:18.748Z,2.80
2019-05-26T23:28:49.471Z,2.80
2019-05-26T23:31:20.062Z,4.10
2019-05-26T23:33:50.775Z,4.17
2019-05-26T23:36:21.385Z,3.70
2019-05-26T23:38:52.155Z,6.30
2019-05-26T23:41:22.784Z,3.37
2019-05-26T23:43:53.290Z,3.37
2019-05-26T23:46:23.664Z,5.40
2019-05-26T23:48:54.536Z,3.47
2019-05-26T23:51:25.152Z,3.97
2019-05-26T23:53:55.988Z,5.00
2019-05-26T23:56:26.553Z,3.47
2019-05-26T23:58:57.322Z,2.43
